Idaho Falls Regional Airport Idaho Falls US
ICAO: KIDA
IATA: IDA
Category: Medium
Scheduled Services: Yes

Elevation: 4744 ft
TransAlt. 18000 ft.

Airport Communications:
ASOS:135.325
ATIS:135.325
SALT LAKE CITY CNTR:128.35
CTAF:118.5
GND:121.7
BOISE RDO:122.55
TWR:118.5
UNICOM:122.95

KIDA Zoom In..

If you have problems with the map follow the link
https://www.worldairports.se/pages/airport.php?
ICAO=KIDA

Runways:

(A) RW 02 length 9002 ft width 150 ft
---- / hdg 23

(B) RW 17 length 4051 ft width 75 ft
---- / hdg 167

(C) RW 20 length 9002 ft width 150 ft
ILS 111.10 / hdg 203

(D) RW 35 length 4051 ft width 75 ft
---- / hdg 347

Location; KIDA
Day. 17 / Time. 21.53 Zulu
* Altimeter: 30.11
* Temperature: -04° c. -24.8°f.
* Wind from: 200° Speed 13 kn.
Dewpoint: -07° c.
Visibility: 10 Statute Miles.
Clouds: Few 1500 ft.

KIDA 172153Z 20013KT 10SM FEW015 M04/M07 A3011 RMK AO2 SLP224 T10391067


Wind From 200°
Speed 13 kn.

 
 
jpsmedia worldairports.se 2020   terms of use